Time;durP1;ratioP1;P1;durP2;ratioP2;P2;SDS_P1;SDS_P2;PMS_P1;PMS_P2;Temp;Humidity;BMP_temperature;BMP_pressure;BME280_temperature;BME280_humidity;BME280_pressure;Samples;Min_cycle;Max_cycle;Signal;HPM_P1;HPM_P2
2023/10/24 00:01:15;;;;;;;0.00;0.00;;;;;;;10.79;100.00;100191.50;5112018;28;20106;-41
2023/10/24 00:03:41;;;;;;;0.00;0.00;;;;;;;10.84;100.00;100183.66;5111409;28;20051;-41
2023/10/24 00:06:06;;;;;;;0.00;0.00;;;;;;;10.86;100.00;100176.22;5099443;28;20381;-41
2023/10/24 00:08:31;;;;;;;0.00;0.00;;;;;;;10.90;100.00;100169.41;5110578;28;20032;-41
2023/10/24 00:11:03;;;;;;;0.00;0.00;;;;;;;10.93;100.00;100161.75;5110667;28;20034;-41
2023/10/24 00:13:28;;;;;;;0.00;0.00;;;;;;;10.96;100.00;100153.28;5112420;28;20023;-41
2023/10/24 00:15:54;;;;;;;0.00;0.00;;;;;;;10.99;100.00;100154.75;5112684;28;20031;-42
2023/10/24 00:18:19;;;;;;;0.00;0.00;;;;;;;10.97;100.00;100159.50;5111248;28;20038;-39
2023/10/24 00:20:45;;;;;;;0.00;0.00;;;;;;;10.92;100.00;100153.88;5110415;28;20027;-40
2023/10/24 00:23:10;;;;;;;0.00;0.00;;;;;;;10.83;100.00;100144.31;5110941;28;20055;-38
2023/10/24 00:25:35;;;;;;;0.00;0.00;;;;;;;10.82;100.00;100143.50;5113654;28;20497;-38
2023/10/24 00:28:01;;;;;;;0.00;0.00;;;;;;;10.83;100.00;100144.31;5118035;28;20031;-42
2023/10/24 00:30:26;;;;;;;0.00;0.00;;;;;;;10.85;100.00;100142.25;5117554;28;20413;-40
2023/10/24 00:32:51;;;;;;;0.00;0.00;;;;;;;10.88;100.00;100137.31;5117498;27;20378;-38
2023/10/24 00:35:17;;;;;;;0.00;0.00;;;;;;;10.87;100.00;100135.63;5117865;28;20032;-39
2023/10/24 00:37:43;;;;;;;0.00;0.00;;;;;;;10.88;100.00;100133.78;5117613;28;20027;-41
2023/10/24 00:40:09;;;;;;;0.00;0.00;;;;;;;10.83;100.00;100133.56;5117629;27;20031;-39
2023/10/24 00:42:34;;;;;;;0.00;0.00;;;;;;;10.82;100.00;100129.19;5117240;28;20035;-39
2023/10/24 00:45:00;;;;;;;0.00;0.00;;;;;;;10.82;100.00;100127.34;5117740;28;20474;-38
2023/10/24 00:47:25;;;;;;;0.00;0.00;;;;;;;10.85;100.00;100126.09;5102010;28;20444;-39
2023/10/24 00:49:51;;;;;;;0.00;0.00;;;;;;;10.82;100.00;100123.81;5104729;27;20392;-37
2023/10/24 00:52:17;;;;;;;0.00;0.00;;;;;;;10.83;100.00;100123.63;5117263;28;20067;-40
2023/10/24 00:54:43;;;;;;;0.00;0.00;;;;;;;10.82;100.00;100126.50;5116081;28;20031;-38
2023/10/24 00:57:11;;;;;;;0.00;0.00;;;;;;;10.80;100.00;100120.50;5130971;27;20027;-39
2023/10/24 00:59:38;;;;;;;0.00;0.00;;;;;;;10.79;100.00;100114.28;5115300;28;20114;-40
2023/10/24 01:02:03;;;;;;;0.00;0.00;;;;;;;10.84;100.00;100119.88;5116496;28;20032;-40
2023/10/24 01:04:29;;;;;;;0.00;0.00;;;;;;;10.82;100.00;100115.72;5096335;28;20046;-39
2023/10/24 01:06:54;;;;;;;0.00;0.00;;;;;;;10.82;100.00;100118.41;5116385;28;20542;-40
2023/10/24 01:09:19;;;;;;;0.00;0.00;;;;;;;10.81;100.00;100114.91;5115187;28;20088;-40
2023/10/24 01:11:45;;;;;;;0.00;0.00;;;;;;;10.81;100.00;100116.78;5117034;28;21551;-40
2023/10/24 01:14:25;;;;;;;0.00;0.00;;;;;;;10.81;100.00;100114.09;5083919;28;21344;-40
2023/10/24 01:16:51;;;;;;;0.00;0.00;;;;;;;10.86;100.00;100111.63;5118672;28;20023;-39
2023/10/24 01:19:16;;;;;;;0.00;0.00;;;;;;;10.88;100.00;100107.69;5120630;28;20027;-40
2023/10/24 01:21:46;;;;;;;0.00;0.00;;;;;;;10.85;100.00;100105.41;5127675;28;20023;-39
2023/10/24 01:24:13;;;;;;;0.00;0.00;;;;;;;10.87;100.00;100110.56;5127400;28;20087;-40
2023/10/24 01:26:39;;;;;;;0.00;0.00;;;;;;;10.88;100.00;100114.94;5124127;28;20027;-38
2023/10/24 01:29:05;;;;;;;0.00;0.00;;;;;;;10.86;100.00;100101.69;5132367;27;20028;-39
2023/10/24 01:31:31;;;;;;;0.00;0.00;;;;;;;10.86;100.00;100111.63;5117203;28;20096;-38
2023/10/24 01:33:56;;;;;;;0.00;0.00;;;;;;;10.86;100.00;100103.53;5117627;28;20449;-39
2023/10/24 01:36:21;;;;;;;0.00;0.00;;;;;;;10.87;100.00;100107.88;5115921;28;20059;-39
2023/10/24 01:38:47;;;;;;;0.00;0.00;;;;;;;10.86;100.00;100108.94;5110568;28;20154;-38
2023/10/24 01:41:12;;;;;;;0.00;0.00;;;;;;;10.88;100.00;100106.88;5113499;28;20015;-39
2023/10/24 01:43:37;;;;;;;0.00;0.00;;;;;;;10.86;100.00;100106.22;5114310;28;20024;-38
2023/10/24 01:46:03;;;;;;;0.00;0.00;;;;;;;10.83;100.00;100104.78;5094329;28;20352;-39
2023/10/24 01:48:28;;;;;;;0.00;0.00;;;;;;;10.86;100.00;100106.22;5113720;28;20474;-39
2023/10/24 01:50:53;;;;;;;0.00;0.00;;;;;;;10.86;100.00;100101.69;5113825;28;20459;-38
2023/10/24 01:53:19;;;;;;;0.00;0.00;;;;;;;10.89;100.00;100097.75;5114197;28;20027;-39
2023/10/24 01:55:44;;;;;;;0.00;0.00;;;;;;;10.88;100.00;100098.78;5113208;28;20027;-39
2023/10/24 01:58:09;;;;;;;0.00;0.00;;;;;;;10.88;100.00;100098.78;5112155;28;20059;-38
2023/10/24 02:00:35;;;;;;;0.00;0.00;;;;;;;10.83;100.00;100107.47;5113169;28;20039;-39
2023/10/24 02:03:00;;;;;;;0.00;0.00;;;;;;;10.83;100.00;100103.94;5111202;28;20082;-38
2023/10/24 02:05:25;;;;;;;0.00;0.00;;;;;;;10.81;100.00;100103.31;5109430;28;20089;-38
2023/10/24 02:07:51;;;;;;;0.00;0.00;;;;;;;10.83;100.00;100098.56;5114040;28;20024;-38
2023/10/24 02:10:16;;;;;;;0.00;0.00;;;;;;;10.79;100.00;100097.28;5112633;28;20119;-37
2023/10/24 02:12:41;;;;;;;0.00;0.00;;;;;;;10.82;100.00;100091.50;5112521;28;20098;-37
2023/10/24 02:15:07;;;;;;;0.00;0.00;;;;;;;10.79;100.00;100089.22;5112330;28;20020;-38
2023/10/24 02:17:33;;;;;;;0.00;0.00;;;;;;;10.81;100.00;100081.78;5113577;28;20034;-38
2023/10/24 02:19:58;;;;;;;0.00;0.00;;;;;;;10.79;100.00;100089.22;5114178;28;20144;-40
2023/10/24 02:22:23;;;;;;;0.00;0.00;;;;;;;10.81;100.00;100092.56;5112421;28;20481;-39
2023/10/24 02:24:49;;;;;;;0.00;0.00;;;;;;;10.80;100.00;100090.91;5114017;28;20031;-39
2023/10/24 02:27:14;;;;;;;0.00;0.00;;;;;;;10.81;100.00;100079.91;5113426;28;20020;-37
2023/10/24 02:29:39;;;;;;;0.00;0.00;;;;;;;10.81;100.00;100085.31;5112648;28;20038;-39
2023/10/24 02:32:05;;;;;;;0.00;0.00;;;;;;;10.80;100.00;100080.13;5113745;28;20020;-38
2023/10/24 02:34:30;;;;;;;0.00;0.00;;;;;;;10.74;100.00;100079.91;5114540;28;20023;-38
2023/10/24 02:36:56;;;;;;;0.00;0.00;;;;;;;10.80;100.00;100075.56;5113624;28;20139;-39
2023/10/24 02:39:21;;;;;;;0.00;0.00;;;;;;;10.80;100.00;100080.13;5113638;28;20043;-39
2023/10/24 02:41:47;;;;;;;0.00;0.00;;;;;;;10.85;100.00;100074.94;5113012;28;20114;-38
2023/10/24 02:44:12;;;;;;;0.00;0.00;;;;;;;10.80;100.00;100074.75;5114591;27;20469;-38
2023/10/24 02:46:37;;;;;;;0.00;0.00;;;;;;;10.80;100.00;100072.06;5112485;28;20039;-37
2023/10/24 02:49:03;;;;;;;0.00;0.00;;;;;;;10.81;100.00;100071.00;5092780;28;20024;-39
2023/10/24 02:51:28;;;;;;;0.00;0.00;;;;;;;10.82;100.00;100072.66;5107202;28;20114;-38
2023/10/24 02:53:53;;;;;;;0.00;0.00;;;;;;;10.75;100.00;100070.78;5112639;28;20057;-39
2023/10/24 02:56:19;;;;;;;0.00;0.00;;;;;;;10.78;100.00;100077.63;5112478;28;20031;-38
2023/10/24 02:58:44;;;;;;;0.00;0.00;;;;;;;10.72;100.00;100073.06;5112138;28;20040;-38
2023/10/24 03:01:09;;;;;;;0.00;0.00;;;;;;;10.75;100.00;100084.25;5112729;28;20028;-37
2023/10/24 03:03:35;;;;;;;0.00;0.00;;;;;;;10.76;100.00;100077.00;5112321;28;20055;-38
2023/10/24 03:06:00;;;;;;;0.00;0.00;;;;;;;10.77;100.00;100079.50;5111970;28;20046;-39
2023/10/24 03:08:26;;;;;;;0.00;0.00;;;;;;;10.76;100.00;100075.13;5112009;28;20073;-39
2023/10/24 03:10:52;;;;;;;0.00;0.00;;;;;;;10.72;100.00;100087.34;5093746;28;20035;-39
2023/10/24 03:13:17;;;;;;;0.00;0.00;;;;;;;10.75;100.00;100080.72;5111983;28;20110;-39
2023/10/24 03:15:43;;;;;;;0.00;0.00;;;;;;;10.74;100.00;100076.38;5111636;28;20049;-39
2023/10/24 03:18:09;;;;;;;0.00;0.00;;;;;;;10.78;100.00;100083.00;5111749;28;20661;-39
2023/10/24 03:20:34;;;;;;;0.00;0.00;;;;;;;10.79;100.00;100083.84;5112010;28;20030;-39
2023/10/24 03:22:59;;;;;;;0.00;0.00;;;;;;;10.75;100.00;100086.94;5111550;28;20126;-38
2023/10/24 03:25:25;;;;;;;0.00;0.00;;;;;;;10.74;100.00;100085.28;5112193;28;20062;-39
2023/10/24 03:27:54;;;;;;;0.03;0.00;;;;;;;10.76;100.00;100088.59;5111927;28;20023;-38
2023/10/24 03:30:21;;;;;;;0.00;0.00;;;;;;;10.78;100.00;100091.09;5111766;28;20028;-39
2023/10/24 03:32:46;;;;;;;0.00;0.00;;;;;;;10.74;100.00;100082.59;5111546;28;20055;-39
2023/10/24 03:35:12;;;;;;;0.00;0.00;;;;;;;10.74;100.00;100079.91;5111791;28;20702;-37
2023/10/24 03:37:38;;;;;;;0.00;0.00;;;;;;;10.77;100.00;100084.88;5111774;28;20028;-40
2023/10/24 03:40:03;;;;;;;0.00;0.00;;;;;;;10.74;100.00;100082.59;5112044;28;20369;-40
2023/10/24 03:42:30;;;;;;;0.00;0.00;;;;;;;10.73;100.00;100080.91;5111451;28;20378;-39
2023/10/24 03:44:55;;;;;;;0.00;0.00;;;;;;;10.75;100.00;100086.94;5115726;28;20031;-40
2023/10/24 03:47:20;;;;;;;0.00;0.00;;;;;;;10.72;100.00;100076.59;5117661;28;20053;-39
2023/10/24 03:49:46;;;;;;;0.00;0.00;;;;;;;10.74;100.00;100084.44;5114990;28;20027;-39
2023/10/24 03:52:11;;;;;;;0.00;0.00;;;;;;;10.72;100.00;100081.97;5111884;28;20067;-38
2023/10/24 03:54:37;;;;;;;0.00;0.00;;;;;;;10.77;100.00;100086.75;5111641;28;20091;-38
2023/10/24 03:57:02;;;;;;;0.00;0.00;;;;;;;10.77;100.00;100087.56;5111914;28;20161;-40
2023/10/24 03:59:28;;;;;;;0.00;0.00;;;;;;;10.77;100.00;100092.97;5110162;28;20076;-37
2023/10/24 04:01:53;;;;;;;0.00;0.00;;;;;;;10.76;100.00;100085.91;5110849;28;20458;-38
2023/10/24 04:04:18;;;;;;;0.00;0.00;;;;;;;10.75;100.00;100086.94;5111280;28;20031;-40
2023/10/24 04:06:44;;;;;;;0.00;0.00;;;;;;;10.77;100.00;100087.56;5109785;28;20031;-39
2023/10/24 04:09:09;;;;;;;0.00;0.00;;;;;;;10.74;100.00;100100.59;5111211;28;20067;-39
2023/10/24 04:11:34;;;;;;;0.00;0.00;;;;;;;10.73;100.00;100080.09;5112002;28;20027;-39
2023/10/24 04:14:00;;;;;;;0.00;0.00;;;;;;;10.72;100.00;100089.22;5111365;28;20088;-37
2023/10/24 04:16:26;;;;;;;0.00;0.00;;;;;;;10.67;100.00;100089.81;5111735;28;20031;-40
2023/10/24 04:18:51;;;;;;;0.00;0.00;;;;;;;10.67;100.00;100091.69;5107699;28;20396;-39
2023/10/24 04:21:17;;;;;;;0.00;0.00;;;;;;;10.67;100.00;100086.28;5109905;28;20028;-40
2023/10/24 04:23:43;;;;;;;0.00;0.00;;;;;;;10.65;100.00;100078.41;5109388;28;20092;-39
2023/10/24 04:26:09;;;;;;;0.00;0.00;;;;;;;10.60;100.00;100075.50;5109764;28;20130;-39
2023/10/24 04:28:34;;;;;;;0.00;0.00;;;;;;;10.59;100.00;100079.22;5109787;28;20072;-38
2023/10/24 04:30:59;;;;;;;0.00;0.00;;;;;;;10.57;100.00;100078.59;5112005;28;20039;-38
2023/10/24 04:33:25;;;;;;;0.00;0.00;;;;;;;10.55;100.00;100061.81;5124863;27;20034;-39
2023/10/24 04:35:51;;;;;;;0.00;0.00;;;;;;;10.55;100.00;100068.00;5107930;28;20536;-38
2023/10/24 04:38:19;;;;;;;0.00;0.00;;;;;;;10.54;100.00;100057.47;5117203;28;20032;-39
2023/10/24 04:40:46;;;;;;;0.00;0.00;;;;;;;10.55;100.00;100059.13;5117141;28;20031;-37
2023/10/24 04:43:11;;;;;;;0.00;0.00;;;;;;;10.52;100.00;100054.97;5115939;28;20440;-39
2023/10/24 04:45:37;;;;;;;0.00;0.00;;;;;;;10.50;100.00;100064.28;5111451;28;20114;-40
2023/10/24 04:48:03;;;;;;;0.00;0.00;;;;;;;10.49;100.00;100052.69;5110222;28;20039;-38
2023/10/24 04:50:29;;;;;;;0.00;0.00;;;;;;;10.50;100.00;100054.34;5109936;28;20401;-38
2023/10/24 04:52:54;;;;;;;0.00;0.00;;;;;;;10.49;100.00;100062.63;5112212;28;20027;-38
2023/10/24 04:55:23;;;;;;;0.00;0.00;;;;;;;10.50;100.00;100050.81;5117310;28;20028;-39
2023/10/24 04:57:49;;;;;;;0.00;0.00;;;;;;;10.49;100.00;100049.16;5118506;28;20075;-39
2023/10/24 05:00:15;;;;;;;0.00;0.00;;;;;;;10.50;100.00;100048.13;5101997;28;20100;-39
2023/10/24 05:02:43;;;;;;;0.00;0.00;;;;;;;10.52;100.00;100051.44;5116290;28;20078;-40
2023/10/24 05:05:09;;;;;;;0.00;0.00;;;;;;;10.52;100.00;100048.75;5119306;28;20040;-38
2023/10/24 05:07:35;;;;;;;0.00;0.00;;;;;;;10.55;100.00;100051.03;5117694;28;20024;-38
2023/10/24 05:10:00;;;;;;;0.00;0.00;;;;;;;10.54;100.00;100052.09;5119183;28;20055;-39
2023/10/24 05:12:26;;;;;;;0.00;0.00;;;;;;;10.53;100.00;100043.19;5118603;28;20019;-40
2023/10/24 05:14:51;;;;;;;0.00;0.00;;;;;;;10.55;100.00;100053.72;5115477;28;20023;-37
2023/10/24 05:17:16;;;;;;;0.00;0.00;;;;;;;10.51;100.00;100045.25;5116187;28;20497;-37
2023/10/24 05:19:42;;;;;;;0.00;0.00;;;;;;;10.52;100.00;100040.69;5115757;28;20106;-38
2023/10/24 05:22:08;;;;;;;0.00;0.00;;;;;;;10.56;100.00;100036.59;5098186;28;20136;-38
2023/10/24 05:24:34;;;;;;;0.00;0.00;;;;;;;10.49;100.00;100036.53;5108542;28;20513;-38
2023/10/24 05:26:59;;;;;;;0.00;0.00;;;;;;;10.51;100.00;100039.88;5115455;28;20076;-37
2023/10/24 05:29:24;;;;;;;0.00;0.00;;;;;;;10.51;100.00;100036.34;5114350;28;20047;-39
2023/10/24 05:31:50;;;;;;;0.00;0.00;;;;;;;10.55;100.00;100021.44;5115464;28;20077;-39
2023/10/24 05:34:15;;;;;;;0.00;0.00;;;;;;;10.58;100.00;100018.34;5115203;28;20039;-39
2023/10/24 05:36:41;;;;;;;0.00;0.00;;;;;;;10.58;100.00;100014.84;5114373;28;20552;-38
2023/10/24 05:39:06;;;;;;;0.00;0.00;;;;;;;10.60;100.00;100005.53;5111692;28;20027;-38
2023/10/24 05:41:31;;;;;;;0.00;0.00;;;;;;;10.65;100.00;100013.81;5109596;28;20032;-38
2023/10/24 05:43:57;;;;;;;0.00;0.00;;;;;;;10.60;100.00;100016.28;5109912;28;20382;-40
2023/10/24 05:46:23;;;;;;;0.00;0.00;;;;;;;10.60;100.00;100016.28;5112854;27;20030;-41
2023/10/24 05:48:48;;;;;;;0.00;0.00;;;;;;;10.59;100.00;100020.03;5098864;28;20503;-38
2023/10/24 05:51:31;;;;;;;0.00;0.00;;;;;;;10.59;100.00;100017.34;5109883;28;20396;-38
2023/10/24 05:53:57;;;;;;;0.00;0.00;;;;;;;10.61;100.00;100023.34;5121046;27;20107;-40
2023/10/24 05:56:23;;;;;;;0.00;0.00;;;;;;;10.65;100.00;100013.81;5114181;28;20438;-38
2023/10/24 05:58:48;;;;;;;0.00;0.00;;;;;;;10.64;100.00;100024.81;5106804;28;20028;-38
2023/10/24 06:01:14;;;;;;;0.00;0.00;;;;;;;10.61;100.00;100017.97;5106844;28;20153;-40
2023/10/24 06:03:39;;;;;;;0.00;0.00;;;;;;;10.60;100.00;100018.16;5109694;28;20042;-39
2023/10/24 06:06:05;;;;;;;0.00;0.00;;;;;;;10.64;100.00;100012.19;5113946;27;20111;-39
2023/10/24 06:08:30;;;;;;;0.00;0.00;;;;;;;10.63;100.00;100010.50;5114334;28;20135;-39
2023/10/24 06:11:01;;;;;;;0.00;0.00;;;;;;;10.62;100.00;100025.00;5098952;28;20078;-38
2023/10/24 06:13:26;;;;;;;0.00;0.00;;;;;;;10.63;100.00;100013.19;5105791;28;20052;-40
2023/10/24 06:15:52;;;;;;;0.00;0.00;;;;;;;10.67;100.00;100009.06;5122771;28;20111;-38
2023/10/24 06:18:18;;;;;;;0.00;0.00;;;;;;;10.71;100.00;100017.56;5121774;28;20072;-39
2023/10/24 06:20:43;;;;;;;0.00;0.00;;;;;;;10.68;100.00;100017.97;5118496;28;20084;-39
2023/10/24 06:23:10;;;;;;;0.00;0.00;;;;;;;10.69;100.00;100031.25;5110144;28;20440;-39
2023/10/24 06:25:43;;;;;;;0.00;0.00;;;;;;;10.72;100.00;100025.44;5113869;28;20051;-39
2023/10/24 06:28:08;;;;;;;0.00;0.00;;;;;;;10.73;100.00;100031.66;5114453;28;20032;-38
2023/10/24 06:30:34;;;;;;;0.00;0.00;;;;;;;10.73;100.00;100028.97;5114104;28;20077;-41
2023/10/24 06:33:00;;;;;;;0.00;0.00;;;;;;;10.73;100.00;100032.47;5094558;28;20036;-39
2023/10/24 06:35:26;;;;;;;0.00;0.00;;;;;;;10.73;100.00;100026.28;5098555;28;20038;-40
2023/10/24 06:37:51;;;;;;;0.00;0.00;;;;;;;10.76;100.00;100037.44;5112854;28;20035;-39
2023/10/24 06:40:17;;;;;;;0.00;0.00;;;;;;;10.78;100.00;100039.94;5113071;28;20023;-40
2023/10/24 06:42:42;;;;;;;0.00;0.00;;;;;;;10.80;100.00;100047.84;5110963;28;20043;-40
2023/10/24 06:45:08;;;;;;;0.00;0.00;;;;;;;10.82;100.00;100040.38;5110543;28;20510;-39
2023/10/24 06:47:33;;;;;;;0.00;0.00;;;;;;;10.83;100.00;100031.28;5112055;28;20050;-39
2023/10/24 06:49:59;;;;;;;0.00;0.00;;;;;;;10.89;100.00;100052.00;5113174;28;20053;-38
2023/10/24 06:52:24;;;;;;;0.00;0.00;;;;;;;10.88;100.00;100055.72;5113377;28;20032;-39
2023/10/24 06:54:50;;;;;;;0.00;0.00;;;;;;;10.92;100.00;100055.09;5105319;28;20134;-39
2023/10/24 06:57:15;;;;;;;0.00;0.00;;;;;;;10.90;100.00;100054.50;5111303;28;20439;-39
2023/10/24 06:59:41;;;;;;;0.00;0.00;;;;;;;10.97;100.00;100054.47;5130242;27;20034;-39
2023/10/24 07:02:06;;;;;;;0.00;0.00;;;;;;;10.95;100.00;100051.16;5114935;27;20054;-40
2023/10/24 07:04:32;;;;;;;0.00;0.00;;;;;;;10.94;100.00;100053.03;5111766;28;20091;-41
2023/10/24 07:06:57;;;;;;;0.00;0.00;;;;;;;10.89;100.00;100063.56;5110209;28;20485;-39
2023/10/24 07:09:23;;;;;;;0.00;0.00;;;;;;;10.89;100.00;100049.28;5110873;27;20389;-39
2023/10/24 07:11:48;;;;;;;0.00;0.00;;;;;;;10.91;100.00;100044.53;5103903;28;20083;-38
2023/10/24 07:14:13;;;;;;;0.00;0.00;;;;;;;10.92;100.00;100046.19;5111539;28;20573;-39
2023/10/24 07:16:39;;;;;;;0.00;0.00;;;;;;;10.91;100.00;100050.75;5115223;27;20476;-38
2023/10/24 07:19:04;;;;;;;0.00;0.00;;;;;;;10.97;100.00;100041.03;5113509;27;20107;-39
2023/10/24 07:21:29;;;;;;;0.00;0.00;;;;;;;10.94;100.00;100044.97;5113180;27;20024;-40
2023/10/24 07:23:56;;;;;;;0.00;0.00;;;;;;;10.98;100.00;100037.31;5108050;28;20027;-40
2023/10/24 07:26:21;;;;;;;0.00;0.00;;;;;;;11.03;100.00;100031.28;5105917;27;20027;-39
2023/10/24 07:28:47;;;;;;;0.00;0.00;;;;;;;11.01;100.00;100036.09;5102167;27;20140;-38
2023/10/24 07:31:12;;;;;;;0.00;0.00;;;;;;;11.00;100.00;100048.69;5114895;27;20104;-40
2023/10/24 07:33:37;;;;;;;0.00;0.00;;;;;;;10.96;100.00;100042.06;5110027;28;20074;-40
2023/10/24 07:36:07;;;;;;;0.00;0.00;;;;;;;10.90;100.00;100048.25;5105717;28;20023;-40
2023/10/24 07:38:32;;;;;;;0.00;0.00;;;;;;;10.88;100.00;100055.72;5111570;28;20024;-40
2023/10/24 07:40:58;;;;;;;0.00;0.00;;;;;;;10.91;100.00;100050.75;5110770;28;20027;-39
2023/10/24 07:43:23;;;;;;;0.00;0.00;;;;;;;10.93;100.00;100043.31;5109239;28;20534;-38
2023/10/24 07:45:53;;;;;;;0.00;0.00;;;;;;;10.91;100.00;100044.53;5111411;27;20028;-39
2023/10/24 07:48:19;;;;;;;0.00;0.00;;;;;;;10.93;100.00;100042.47;5111488;28;20038;-39
2023/10/24 07:50:55;;;;;;;0.00;0.00;;;;;;;10.88;100.00;100028.81;5112362;28;20079;-39
2023/10/24 07:53:21;;;;;;;0.00;0.00;;;;;;;10.91;100.00;100039.16;5114713;28;20030;-40
2023/10/24 07:55:46;;;;;;;0.00;0.00;;;;;;;10.91;100.00;100044.53;5117036;27;20023;-40
2023/10/24 07:58:12;;;;;;;0.00;0.00;;;;;;;10.91;100.00;100039.16;5118747;28;20039;-41
2023/10/24 08:00:37;;;;;;;0.00;0.00;;;;;;;10.92;100.00;100040.81;5117941;28;20099;-38
2023/10/24 08:03:02;;;;;;;0.00;0.00;;;;;;;10.90;100.00;100035.66;5115923;27;20104;-39
2023/10/24 08:05:28;;;;;;;0.00;0.00;;;;;;;10.91;100.00;100029.22;5114032;27;20028;-39
2023/10/24 08:07:53;;;;;;;0.00;0.00;;;;;;;10.86;100.00;100042.47;5109466;27;20027;-38
2023/10/24 08:10:18;;;;;;;0.00;0.00;;;;;;;10.90;100.00;100037.47;5111459;28;20473;-39
2023/10/24 08:12:44;;;;;;;0.00;0.00;;;;;;;10.89;100.00;100033.16;5111321;28;20497;-39
2023/10/24 08:15:09;;;;;;;0.00;0.00;;;;;;;10.88;100.00;100026.13;5114553;28;20418;-39
2023/10/24 08:17:35;;;;;;;0.00;0.00;;;;;;;10.89;100.00;100030.44;5116807;28;20384;-41
2023/10/24 08:20:00;;;;;;;0.00;0.00;;;;;;;10.84;100.00;100032.91;5135157;27;20059;-40
2023/10/24 08:22:25;;;;;;;0.00;0.00;;;;;;;10.88;100.00;100028.81;5114776;28;20031;-38
2023/10/24 08:24:51;;;;;;;0.00;0.00;;;;;;;10.86;100.00;100041.63;5115684;28;20028;-41
2023/10/24 08:27:16;;;;;;;0.00;0.00;;;;;;;10.88;100.00;100028.81;5108924;28;20495;-41
2023/10/24 08:29:41;;;;;;;0.00;0.00;;;;;;;10.89;100.00;100025.06;5112759;28;20339;-40
2023/10/24 08:32:07;;;;;;;0.00;0.00;;;;;;;10.91;100.00;100049.94;5108980;28;20112;-40
2023/10/24 08:34:36;;;;;;;0.00;0.00;;;;;;;10.98;100.00;100034.63;5112309;28;20458;-40
2023/10/24 08:37:02;;;;;;;0.00;0.00;;;;;;;10.96;100.00;100032.13;5110625;28;20024;-41
2023/10/24 08:39:28;;;;;;;0.00;0.00;;;;;;;11.01;100.00;100028.81;5111546;28;20370;-40
2023/10/24 08:41:56;;;;;;;0.00;0.00;;;;;;;11.17;100.00;100023.03;5110581;28;20289;-39
2023/10/24 08:44:22;;;;;;;0.00;0.00;;;;;;;11.14;100.00;100022.63;5110439;28;20389;-39
2023/10/24 08:46:48;;;;;;;0.00;0.00;;;;;;;11.16;100.00;100034.00;5093824;28;20087;-40
2023/10/24 08:49:14;;;;;;;0.00;0.00;;;;;;;11.18;100.00;100038.16;5133214;27;20092;-40
2023/10/24 08:51:39;;;;;;;0.00;0.00;;;;;;;11.21;100.00;100034.22;5108163;28;20045;-41
2023/10/24 08:54:05;;;;;;;0.00;0.00;;;;;;;11.15;100.00;100025.09;5118233;28;20392;-38
2023/10/24 08:56:33;;;;;;;0.00;0.00;;;;;;;11.26;100.00;100030.91;5119877;27;20042;-40
2023/10/24 08:58:59;;;;;;;0.00;0.00;;;;;;;11.34;100.00;100033.41;5113465;28;20439;-42
2023/10/24 09:01:25;;;;;;;0.00;0.00;;;;;;;11.25;100.00;100042.75;5114208;28;20023;-40
2023/10/24 09:03:50;;;;;;;0.00;0.00;;;;;;;11.29;100.00;100049.34;5096776;28;20447;-43
2023/10/24 09:06:16;;;;;;;0.00;0.00;;;;;;;11.23;100.00;100052.88;5117759;27;20031;-40
2023/10/24 09:08:41;;;;;;;0.00;0.00;;;;;;;11.21;100.00;100051.19;5120027;27;20093;-40
2023/10/24 09:11:06;;;;;;;0.00;0.00;;;;;;;11.26;100.00;100049.78;5114140;27;20084;-40
2023/10/24 09:13:34;;;;;;;0.00;0.00;;;;;;;11.17;100.00;100046.47;5114832;28;20079;-40
2023/10/24 09:16:06;;;;;;;0.00;0.00;;;;;;;11.20;100.00;100046.88;5114564;28;20623;-40
2023/10/24 09:18:34;;;;;;;0.00;0.00;;;;;;;11.17;100.00;100052.66;5123316;27;20035;-41
2023/10/24 09:21:00;;;;;;;;;;;;;;;11.28;100.00;100055.78;5117782;27;20035;-39
2023/10/24 09:23:25;;;;;;;0.00;0.00;;;;;;;11.25;100.00;100051.66;5115231;28;19919;-39
2023/10/24 09:25:50;;;;;;;0.00;0.00;;;;;;;11.30;100.00;100064.50;5115640;28;20027;-40
2023/10/24 09:28:18;;;;;;;0.00;0.00;;;;;;;11.26;100.00;100069.44;5117119;28;20027;-39
2023/10/24 09:30:44;;;;;;;0.00;0.00;;;;;;;11.25;100.00;100066.97;5116537;28;20449;-40
2023/10/24 09:33:09;;;;;;;0.00;0.00;;;;;;;11.19;100.00;100069.47;5119653;27;20016;-41
2023/10/24 09:35:36;;;;;;;0.00;0.00;;;;;;;11.15;100.00;100083.53;5114581;28;20027;-38
2023/10/24 09:38:02;;;;;;;0.00;0.00;;;;;;;11.06;100.00;100066.75;5114874;27;20036;-40
2023/10/24 09:40:36;;;;;;;0.00;0.00;;;;;;;11.06;100.00;100066.75;5113493;28;20031;-40
2023/10/24 09:43:04;;;;;;;0.00;0.00;;;;;;;11.08;100.00;100074.59;5114316;28;20065;-41
2023/10/24 09:45:31;;;;;;;0.00;0.00;;;;;;;11.10;100.00;100065.28;5115250;28;20111;-41
2023/10/24 09:47:58;;;;;;;0.00;0.00;;;;;;;11.16;100.00;100061.78;5120716;27;20041;-39
2023/10/24 09:50:23;;;;;;;0.00;0.00;;;;;;;11.23;100.00;100063.66;5112708;28;20517;-40
2023/10/24 09:52:49;;;;;;;0.00;0.00;;;;;;;11.30;100.00;100046.47;5096838;28;20023;-38
2023/10/24 09:55:15;;;;;;;0.00;0.00;;;;;;;11.35;100.00;100072.78;5094689;28;20027;-39
2023/10/24 09:57:44;;;;;;;0.00;0.00;;;;;;;11.38;100.00;100058.91;5091585;28;20028;-41
2023/10/24 10:00:11;;;;;;;0.00;0.00;;;;;;;11.39;100.00;100063.25;5090688;28;20271;-40
2023/10/24 10:02:41;;;;;;;0.00;0.00;;;;;;;11.35;100.00;100068.22;5107695;28;20039;-40
2023/10/24 10:05:07;;;;;;;0.00;0.00;;;;;;;11.35;100.00;100068.22;5103185;28;20347;-39
2023/10/24 10:07:33;;;;;;;0.00;0.00;;;;;;;11.39;100.00;100063.25;5121735;27;20011;-40
2023/10/24 10:09:59;;;;;;;0.00;0.00;;;;;;;11.40;100.00;100059.50;5103862;28;20027;-40
2023/10/24 10:12:26;;;;;;;0.00;0.00;;;;;;;11.34;100.00;100063.03;5091256;28;20019;-39
2023/10/24 10:15:18;;;;;;;0.00;0.00;;;;;;;11.42;100.00;100066.34;5092771;28;20024;-39
2023/10/24 10:17:49;;;;;;;0.00;0.00;;;;;;;11.34;100.00;100060.34;5091116;27;20036;-40
2023/10/24 10:20:45;;;;;;;0.00;0.00;;;;;;;11.40;100.00;100075.66;5104575;28;20548;-40
2023/10/24 10:23:16;;;;;;;0.00;0.00;;;;;;;11.40;100.00;100064.91;5109086;28;20028;-40
2023/10/24 10:26:10;;;;;;;0.00;0.00;;;;;;;11.36;100.00;100064.50;5107893;27;20030;-40
2023/10/24 10:28:44;;;;;;;0.00;0.00;;;;;;;11.31;100.00;100060.75;5115239;28;20052;-40
2023/10/24 10:31:32;;;;;;;0.00;0.00;;;;;;;11.35;100.00;100060.16;5129285;27;20214;-41
2023/10/24 10:33:58;;;;;;;0.00;0.00;;;;;;;11.29;100.00;100055.56;5096303;28;20531;-38
2023/10/24 10:36:25;;;;;;;0.00;0.00;;;;;;;11.38;100.00;100057.03;5095227;28;20024;-39
2023/10/24 10:38:50;;;;;;;0.00;0.00;;;;;;;11.38;100.00;100059.72;5106818;28;20039;-40
2023/10/24 10:41:22;;;;;;;0.00;0.00;;;;;;;11.41;100.00;100051.22;5114589;28;20036;-41
2023/10/24 10:43:55;;;;;;;0.00;0.00;;;;;;;11.42;100.00;100043.97;5113872;28;20721;-40
2023/10/24 10:46:23;;;;;;;0.00;0.00;;;;;;;11.44;100.00;100050.00;5112896;28;20028;-39
2023/10/24 10:48:49;;;;;;;0.00;0.00;;;;;;;11.45;100.00;100057.03;5108710;28;20481;-41
2023/10/24 10:51:25;;;;;;;0.00;0.00;;;;;;;11.37;100.00;100058.09;5113263;28;20023;-38
2023/10/24 10:54:05;;;;;;;0.00;0.00;;;;;;;11.37;100.00;100052.69;5113744;28;20032;-40
2023/10/24 10:56:33;;;;;;;0.00;0.00;;;;;;;11.40;100.00;100054.13;5113578;28;20111;-40
2023/10/24 10:59:07;;;;;;;0.00;0.00;;;;;;;11.32;100.00;100052.47;5095483;28;20038;-39
2023/10/24 11:01:36;;;;;;;0.00;0.00;;;;;;;11.28;100.00;100055.78;5093378;28;20537;-36
2023/10/24 11:04:02;;;;;;;0.00;0.00;;;;;;;11.25;100.00;100054.34;5107116;28;20077;-39
2023/10/24 11:06:28;;;;;;;0.00;0.00;;;;;;;11.23;100.00;100063.66;5112266;28;20039;-39
2023/10/24 11:09:08;;;;;;;0.00;0.00;;;;;;;11.22;100.00;100052.06;5108567;27;20028;-38
2023/10/24 11:11:33;;;;;;;0.00;0.00;;;;;;;11.18;100.00;100058.88;5112503;28;20499;-39
2023/10/24 11:14:16;;;;;;;0.00;0.00;;;;;;;11.11;100.00;100055.34;5113056;28;20032;-39